createdAt,value
2019-01-13T00:03:40.983Z,1.61
2019-01-13T00:06:31.110Z,1.63
2019-01-13T00:09:17.960Z,1.62
2019-01-13T00:12:07.872Z,1.63
2019-01-13T00:14:54.538Z,1.61
2019-01-13T00:18:05.061Z,1.60
2019-01-13T00:26:47.820Z,1.66
2019-01-13T00:29:37.683Z,1.66
2019-01-13T00:32:24.251Z,1.60
2019-01-13T00:35:14.535Z,1.64
2019-01-13T00:38:04.213Z,1.64
2019-01-13T00:46:54.686Z,1.70
2019-01-13T00:49:42.141Z,1.71
2019-01-13T00:52:32.229Z,1.71
2019-01-13T00:55:18.719Z,1.64
2019-01-13T01:04:08.550Z,1.77
2019-01-13T01:06:58.291Z,1.78
2019-01-13T01:09:41.245Z,1.64
2019-01-13T01:15:20.705Z,1.80
2019-01-13T01:18:11.529Z,1.80
2019-01-13T01:30:44.019Z,1.73
2019-01-13T01:33:27.295Z,1.75
2019-01-13T01:39:07.621Z,1.80
2019-01-13T01:42:16.761Z,1.83
2019-01-13T01:47:57.274Z,1.83
2019-01-13T01:59:36.887Z,1.85
2019-01-13T02:08:40.251Z,1.83
2019-01-13T02:11:25.195Z,1.77
2019-01-13T02:23:23.689Z,1.81
2019-01-13T02:26:07.785Z,1.84
2019-01-13T02:28:51.517Z,1.77
2019-01-13T02:31:43.586Z,1.80
2019-01-13T02:34:33.821Z,1.76
2019-01-13T02:37:23.701Z,1.75
2019-01-13T02:40:15.912Z,1.72
2019-01-13T02:45:51.071Z,1.66
2019-01-13T02:48:41.143Z,1.72
2019-01-13T02:54:22.706Z,1.73
2019-01-13T03:00:09.973Z,1.76
2019-01-13T03:03:20.309Z,1.76
2019-01-13T03:06:03.739Z,1.77
2019-01-13T03:11:55.758Z,1.83
2019-01-13T03:20:39.595Z,1.88
2019-01-13T03:23:48.806Z,1.88
2019-01-13T03:26:34.802Z,1.90
2019-01-13T03:29:21.394Z,1.80
2019-01-13T03:32:08.003Z,1.86
2019-01-13T03:41:23.516Z,1.88
2019-01-13T03:44:13.639Z,1.87
2019-01-13T03:46:58.484Z,1.79
2019-01-13T03:49:48.616Z,1.87
2019-01-13T03:52:31.815Z,1.78
2019-01-13T03:55:43.293Z,1.95
2019-01-13T04:01:24.432Z,2.00
2019-01-13T04:07:07.271Z,2.05
2019-01-13T04:16:31.480Z,2.05
2019-01-13T04:19:15.131Z,1.96
2019-01-13T04:22:04.990Z,2.11
2019-01-13T04:24:54.897Z,2.13
2019-01-13T04:33:59.080Z,2.19
2019-01-13T04:36:49.018Z,2.20
2019-01-13T04:39:33.464Z,2.18
2019-01-13T04:42:42.969Z,2.24
2019-01-13T04:45:29.462Z,2.26
2019-01-13T04:51:13.369Z,2.11
2019-01-13T05:03:35.063Z,2.13
2019-01-13T05:09:13.646Z,2.28
2019-01-13T05:12:03.066Z,2.25
2019-01-13T05:20:51.957Z,2.10
2019-01-13T05:23:41.800Z,2.26
2019-01-13T05:26:29.550Z,2.20
2019-01-13T05:29:19.654Z,2.28
2019-01-13T05:44:00.884Z,2.38
2019-01-13T05:46:50.732Z,2.35
2019-01-13T05:49:34.505Z,2.37
2019-01-13T05:52:24.273Z,2.41
2019-01-13T05:58:38.543Z,2.40
2019-01-13T06:04:44.305Z,2.45
2019-01-13T06:07:28.353Z,2.40
2019-01-13T06:13:11.427Z,2.47
2019-01-13T06:16:01.259Z,2.49
2019-01-13T06:18:44.315Z,2.48
2019-01-13T06:21:34.116Z,2.51
2019-01-13T06:24:17.421Z,2.54
2019-01-13T07:54:23.361Z,2.72
2019-01-13T08:00:14.048Z,2.65
2019-01-13T08:09:12.818Z,2.59
2019-01-13T08:14:57.066Z,2.56
2019-01-13T08:42:10.508Z,2.63
2019-01-13T08:45:14.091Z,2.65
2019-01-13T08:51:02.562Z,2.71
2019-01-13T08:53:46.274Z,2.72
2019-01-13T09:02:32.389Z,2.73
2019-01-13T09:08:27.530Z,2.72
2019-01-13T09:17:40.588Z,2.65
2019-01-13T09:23:38.488Z,2.71
2019-01-13T09:32:13.712Z,2.74
2019-01-13T09:35:05.953Z,2.76
2019-01-13T09:43:59.350Z,2.72
2019-01-13T09:46:49.535Z,2.72
2019-01-13T09:52:37.613Z,2.79
2019-01-13T09:55:28.408Z,2.77
2019-01-13T09:58:15.441Z,2.68
2019-01-13T10:04:22.364Z,2.85
2019-01-13T10:07:12.729Z,2.88
2019-01-13T10:22:09.796Z,2.79
2019-01-13T10:25:00.161Z,2.77
2019-01-13T10:27:45.288Z,2.77
2019-01-13T10:45:28.472Z,2.76
2019-01-13T10:51:19.599Z,2.82
2019-01-13T10:54:09.235Z,2.84
2019-01-13T11:00:03.148Z,2.84
2019-01-13T11:09:14.242Z,2.80
2019-01-13T11:12:04.046Z,2.81
2019-01-13T11:20:42.684Z,2.79
2019-01-13T11:23:32.570Z,2.80
2019-01-13T11:35:50.328Z,2.75
2019-01-13T11:38:40.518Z,2.74
2019-01-13T11:44:23.413Z,2.78
2019-01-13T11:47:10.011Z,2.81
2019-01-13T11:56:01.758Z,2.65
2019-01-13T12:04:49.544Z,2.77
2019-01-13T12:07:39.487Z,2.76
2019-01-13T12:10:29.684Z,2.79
2019-01-13T12:13:19.626Z,2.80
2019-01-13T12:16:09.498Z,2.80
2019-01-13T12:22:00.356Z,2.85
2019-01-13T12:24:51.052Z,2.84
2019-01-13T12:27:34.368Z,2.85
2019-01-13T12:30:26.740Z,2.80
2019-01-13T12:33:24.339Z,2.89
2019-01-13T12:42:07.572Z,2.98
2019-01-13T12:44:59.148Z,3.02
2019-01-13T12:47:44.203Z,3.06
2019-01-13T12:56:48.711Z,3.15
2019-01-13T12:59:33.774Z,3.20
2019-01-13T13:05:07.205Z,3.20
2019-01-13T13:07:57.774Z,3.33
2019-01-13T13:10:40.980Z,3.20
2019-01-13T13:13:31.734Z,3.36
2019-01-13T13:16:14.162Z,3.38
2019-01-13T13:19:03.928Z,3.40
2019-01-13T13:21:46.333Z,3.42
2019-01-13T13:27:37.974Z,3.34
2019-01-13T13:30:27.736Z,3.49
2019-01-13T13:33:10.483Z,3.52
2019-01-13T13:36:00.227Z,3.53
2019-01-13T13:38:43.131Z,3.53
2019-01-13T13:41:32.875Z,3.57
2019-01-13T13:44:15.519Z,3.59
2019-01-13T13:47:05.231Z,3.58
2019-01-13T13:49:35.951Z,3.56
2019-01-13T13:52:26.007Z,3.56
2019-01-13T13:55:10.750Z,3.56
2019-01-13T14:01:06.702Z,3.60
2019-01-13T14:03:56.104Z,3.60
2019-01-13T14:06:38.904Z,3.56
2019-01-13T14:09:29.099Z,3.64
2019-01-13T14:12:18.967Z,3.64
2019-01-13T14:15:09.953Z,3.67
2019-01-13T14:18:00.314Z,3.67
2019-01-13T14:20:50.150Z,3.62
2019-01-13T14:23:59.134Z,3.67
2019-01-13T14:26:49.323Z,3.72
2019-01-13T14:29:33.196Z,3.76
2019-01-13T14:32:16.106Z,3.83
2019-01-13T14:38:20.545Z,3.85
2019-01-13T14:41:10.395Z,3.95
2019-01-13T14:44:00.240Z,3.84
2019-01-13T14:46:46.448Z,4.02
2019-01-13T14:49:28.983Z,4.06
2019-01-13T14:52:19.120Z,4.12
2019-01-13T14:55:09.224Z,4.15
2019-01-13T14:57:59.066Z,4.21
2019-01-13T15:00:48.883Z,4.08
2019-01-13T15:03:31.311Z,4.29
2019-01-13T15:06:21.170Z,4.31
2019-01-13T15:09:11.192Z,4.38
2019-01-13T15:15:02.310Z,4.47
2019-01-13T15:17:44.641Z,4.40
2019-01-13T15:23:41.021Z,4.57
2019-01-13T15:32:20.448Z,4.71
2019-01-13T15:35:10.447Z,4.76
2019-01-13T15:38:00.629Z,4.77
2019-01-13T15:40:50.497Z,4.83
2019-01-13T15:43:40.377Z,4.88
2019-01-13T15:46:30.291Z,4.87
2019-01-13T15:49:20.635Z,4.91
2019-01-13T15:52:10.519Z,4.98
2019-01-13T15:55:00.363Z,5.00
2019-01-13T15:57:50.317Z,5.07
2019-01-13T16:00:40.495Z,5.05
2019-01-13T16:03:30.335Z,5.07
2019-01-13T16:06:20.196Z,5.09
2019-01-13T16:11:47.033Z,5.11
2019-01-13T16:14:37.470Z,5.14
2019-01-13T16:17:21.095Z,5.01
2019-01-13T16:20:31.980Z,5.15
2019-01-13T16:23:14.431Z,5.17
2019-01-13T16:26:04.250Z,5.18
2019-01-13T16:28:48.179Z,5.16
2019-01-13T16:31:37.953Z,5.10
2019-01-13T16:34:21.805Z,5.10
2019-01-13T16:37:11.675Z,5.05
2019-01-13T16:39:54.157Z,4.97
2019-01-13T16:42:43.956Z,5.02
2019-01-13T16:45:28.581Z,5.07
2019-01-13T16:48:18.385Z,5.08
2019-01-13T16:51:00.429Z,5.09
2019-01-13T16:53:50.207Z,5.09
2019-01-13T16:56:39.240Z,5.10
2019-01-13T16:59:29.046Z,5.10
2019-01-13T17:02:11.558Z,5.09
2019-01-13T17:05:02.208Z,5.08
2019-01-13T17:07:45.251Z,4.99
2019-01-13T17:10:35.886Z,5.18
2019-01-13T17:13:18.913Z,5.18
2019-01-13T17:16:09.076Z,5.17
2019-01-13T17:18:52.035Z,5.20
2019-01-13T17:21:42.176Z,5.22
2019-01-13T17:24:25.800Z,5.25
2019-01-13T17:27:15.985Z,5.24
2019-01-13T17:30:02.398Z,5.29
2019-01-13T17:32:52.478Z,5.25
2019-01-13T17:35:35.028Z,5.26
2019-01-13T17:38:25.120Z,5.26
2019-01-13T17:41:14.882Z,5.23
2019-01-13T17:43:57.348Z,5.22
2019-01-13T17:49:43.028Z,5.17
2019-01-13T17:52:32.865Z,5.17
2019-01-13T17:58:38.678Z,5.20
2019-01-13T18:01:35.500Z,5.18
2019-01-13T18:04:25.725Z,5.09
2019-01-13T18:10:06.398Z,5.14
2019-01-13T18:12:56.566Z,5.28
2019-01-13T18:21:46.568Z,5.23
2019-01-13T18:24:36.655Z,5.38
2019-01-13T18:27:23.865Z,5.36
2019-01-13T18:30:19.501Z,5.32
2019-01-13T18:33:02.580Z,5.30
2019-01-13T18:38:45.007Z,5.27
2019-01-13T18:41:35.165Z,5.26
2019-01-13T18:47:25.900Z,5.26
2019-01-13T18:50:13.977Z,5.30
2019-01-13T18:53:00.853Z,5.14
2019-01-13T18:55:50.781Z,5.28
2019-01-13T18:58:40.626Z,5.14
2019-01-13T19:01:30.427Z,5.29
2019-01-13T19:04:20.555Z,5.27
2019-01-13T19:07:10.982Z,5.30
2019-01-13T19:10:01.008Z,5.35
2019-01-13T19:15:51.250Z,5.32
2019-01-13T19:18:41.122Z,5.31
2019-01-13T19:21:49.957Z,5.38
2019-01-13T19:24:38.154Z,5.40
2019-01-13T19:27:27.899Z,5.41
2019-01-13T19:30:15.293Z,5.40
2019-01-13T19:33:24.491Z,5.43
2019-01-13T19:36:08.507Z,5.45
2019-01-13T19:38:58.879Z,5.44
2019-01-13T19:41:41.350Z,5.48
2019-01-13T19:44:31.493Z,5.49
2019-01-13T19:47:21.401Z,5.40
2019-01-13T19:50:14.571Z,5.53
2019-01-13T19:53:04.550Z,5.47
2019-01-13T19:55:54.379Z,5.41
2019-01-13T19:58:44.789Z,5.55
2019-01-13T20:01:35.556Z,5.54
2019-01-13T20:04:25.990Z,5.57
2019-01-13T20:07:16.328Z,5.57
2019-01-13T20:16:27.715Z,5.55
2019-01-13T20:22:11.131Z,5.51
2019-01-13T20:25:01.197Z,5.51
2019-01-13T20:36:28.941Z,5.48
2019-01-13T20:39:11.612Z,5.50
2019-01-13T20:42:01.813Z,5.38
2019-01-13T20:44:51.705Z,5.51
2019-01-13T20:47:42.688Z,5.45
2019-01-13T20:50:32.523Z,5.47
2019-01-13T20:53:22.649Z,5.46
2019-01-13T20:56:12.563Z,5.47
2019-01-13T20:59:21.266Z,5.48
2019-01-13T21:02:03.829Z,5.53
2019-01-13T21:07:45.349Z,5.53
2019-01-13T21:14:00.525Z,5.55
2019-01-13T21:16:44.721Z,5.54
2019-01-13T21:22:57.834Z,5.49
2019-01-13T21:26:11.958Z,5.51
2019-01-13T21:28:58.635Z,5.49
2019-01-13T21:31:48.740Z,5.39
2019-01-13T21:34:33.322Z,5.53
2019-01-13T21:37:23.440Z,5.56
2019-01-13T21:40:06.418Z,5.56
2019-01-13T21:45:57.155Z,5.58
2019-01-13T21:48:47.348Z,5.57
2019-01-13T21:51:30.437Z,5.59
2019-01-13T21:54:20.522Z,5.56
2019-01-13T21:57:03.346Z,5.63
2019-01-13T22:02:36.828Z,5.63
2019-01-13T22:05:26.612Z,5.67
2019-01-13T22:08:10.294Z,5.66
2019-01-13T22:11:00.472Z,5.68
2019-01-13T22:13:44.248Z,5.70
2019-01-13T22:16:34.063Z,5.73
2019-01-13T22:19:18.713Z,5.73
2019-01-13T22:22:08.488Z,5.74
2019-01-13T22:24:53.480Z,5.70
2019-01-13T22:27:43.410Z,5.76
2019-01-13T22:30:33.182Z,5.76
2019-01-13T22:33:15.692Z,5.78
2019-01-13T22:41:23.604Z,5.64
2019-01-13T22:44:13.476Z,5.79
2019-01-13T22:47:03.318Z,5.83
2019-01-13T22:52:54.478Z,5.83
2019-01-13T22:55:44.649Z,5.84
2019-01-13T22:58:34.974Z,5.83
2019-01-13T23:01:45.590Z,5.80
2019-01-13T23:04:35.432Z,5.76
2019-01-13T23:07:25.468Z,5.78
2019-01-13T23:10:15.572Z,5.79
2019-01-13T23:13:05.775Z,5.82
2019-01-13T23:15:49.168Z,5.79
2019-01-13T23:18:39.024Z,5.77
2019-01-13T23:21:21.145Z,5.80
2019-01-13T23:24:11.282Z,5.82
2019-01-13T23:26:54.066Z,5.82
2019-01-13T23:32:49.984Z,5.82
2019-01-13T23:35:41.432Z,5.80
2019-01-13T23:41:22.198Z,5.76
2019-01-13T23:44:12.029Z,5.76
2019-01-13T23:47:02.325Z,5.72
2019-01-13T23:49:52.539Z,5.71
2019-01-13T23:52:42.699Z,5.68
2019-01-13T23:55:32.817Z,5.69
2019-01-13T23:58:22.997Z,5.68
